Time;durP1;ratioP1;P1;durP2;ratioP2;P2;SDS_P1;SDS_P2;PMS_P1;PMS_P2;Temp;Humidity;BMP_temperature;BMP_pressure;BME280_temperature;BME280_humidity;BME280_pressure;Samples;Min_cycle;Max_cycle;Signal;HPM_P1;HPM_P2
2023/02/09 00:00:51;;;;;;;15.38;5.18;;;;;;;;;;5088383;28;20044;-67
2023/02/09 00:03:16;;;;;;;15.20;5.80;;;;;;;;;;5088660;28;20403;-68
2023/02/09 00:05:42;;;;;;;14.33;5.60;;;;;;;;;;5088390;28;20102;-68
2023/02/09 00:08:07;;;;;;;15.02;4.95;;;;;;;;;;5080551;28;20023;-66
2023/02/09 00:10:32;;;;;;;13.90;5.35;;;;;;;;;;5086916;28;20024;-67
2023/02/09 00:15:46;;;;;;;14.20;5.65;;;;;;;;;;5076121;28;20050;-67
2023/02/09 00:18:11;;;;;;;15.15;5.38;;;;;;;;;;5080392;28;20024;-67
2023/02/09 00:20:36;;;;;;;14.65;6.03;;;;;;;;;;5086838;28;20358;-68
2023/02/09 00:23:01;;;;;;;13.30;5.28;;;;;;;;;;5089922;28;20032;-68
2023/02/09 00:25:27;;;;;;;19.65;5.63;;;;;;;;;;5088787;28;20047;-66
2023/02/09 00:27:52;;;;;;;16.23;5.25;;;;;;;;;;5085025;28;20637;-66
2023/02/09 00:30:17;;;;;;;13.45;5.38;;;;;;;;;;5074649;28;20078;-67
2023/02/09 00:32:42;;;;;;;13.00;5.20;;;;;;;;;;5082084;28;20048;-68
2023/02/09 00:35:07;;;;;;;13.07;5.25;;;;;;;;;;5091309;28;20032;-66
2023/02/09 00:37:33;;;;;;;13.83;5.23;;;;;;;;;;5080812;28;20099;-67
2023/02/09 00:39:58;;;;;;;13.27;5.15;;;;;;;;;;5082097;28;20055;-67
2023/02/09 00:42:23;;;;;;;13.77;5.23;;;;;;;;;;5083681;28;20012;-67
2023/02/09 00:44:48;;;;;;;14.68;5.50;;;;;;;;;;5077659;28;20457;-71
2023/02/09 00:47:14;;;;;;;14.43;5.35;;;;;;;;;;5082066;28;20012;-66
2023/02/09 00:49:39;;;;;;;15.43;5.23;;;;;;;;;;5087067;28;20044;-69
2023/02/09 00:52:04;;;;;;;14.27;5.00;;;;;;;;;;5080112;28;20032;-67
2023/02/09 00:54:29;;;;;;;15.48;4.97;;;;;;;;;;5082709;28;20032;-68
2023/02/09 00:56:54;;;;;;;14.40;5.30;;;;;;;;;;5081778;28;20115;-67
2023/02/09 00:59:20;;;;;;;13.30;4.80;;;;;;;;;;5089256;28;20017;-68
2023/02/09 01:01:45;;;;;;;13.77;4.80;;;;;;;;;;5081595;28;20032;-68
2023/02/09 01:04:11;;;;;;;12.45;5.35;;;;;;;;;;5083371;28;20044;-67
2023/02/09 01:06:37;;;;;;;13.25;5.55;;;;;;;;;;5084812;28;20375;-67
2023/02/09 01:09:02;;;;;;;14.63;5.10;;;;;;;;;;5083116;28;20026;-67
2023/02/09 01:11:28;;;;;;;12.73;4.50;;;;;;;;;;5088441;28;20058;-67
2023/02/09 01:13:57;;;;;;;15.25;4.97;;;;;;;;;;5089893;28;20076;-66
2023/02/09 01:16:22;;;;;;;14.50;5.35;;;;;;;;;;5088867;28;20475;-66
2023/02/09 01:18:48;;;;;;;15.35;5.45;;;;;;;;;;5085158;28;20098;-68
2023/02/09 01:21:14;;;;;;;14.27;5.20;;;;;;;;;;5084199;28;20072;-65
2023/02/09 01:23:39;;;;;;;15.02;4.95;;;;;;;;;;5081430;28;20019;-69
2023/02/09 01:26:05;;;;;;;12.75;5.30;;;;;;;;;;5084445;28;20046;-68
2023/02/09 01:28:30;;;;;;;15.07;5.63;;;;;;;;;;5080805;28;20103;-68
2023/02/09 01:30:56;;;;;;;14.82;5.50;;;;;;;;;;5081280;28;20169;-66
2023/02/09 01:33:21;;;;;;;12.20;4.80;;;;;;;;;;5087589;28;20031;-65
2023/02/09 01:35:46;;;;;;;16.33;5.23;;;;;;;;;;5085808;28;20474;-67
2023/02/09 01:38:11;;;;;;;12.00;5.10;;;;;;;;;;5081874;28;20463;-68
2023/02/09 01:40:36;;;;;;;13.95;5.57;;;;;;;;;;5083076;28;20036;-66
2023/02/09 01:43:01;;;;;;;13.15;5.32;;;;;;;;;;5081036;28;20028;-68
2023/02/09 01:45:35;;;;;;;13.73;5.10;;;;;;;;;;5073131;28;20072;-67
2023/02/09 01:48:02;;;;;;;13.13;5.13;;;;;;;;;;5080556;28;20204;-67
2023/02/09 01:50:28;;;;;;;12.55;4.82;;;;;;;;;;5078799;28;20032;-67
2023/02/09 01:52:53;;;;;;;14.25;5.25;;;;;;;;;;5088107;28;20045;-66
2023/02/09 01:55:21;;;;;;;14.55;5.40;;;;;;;;;;5088681;28;20016;-67
2023/02/09 01:57:52;;;;;;;11.48;4.85;;;;;;;;;;5089704;28;20023;-66
2023/02/09 02:00:18;;;;;;;14.00;5.22;;;;;;;;;;5096223;28;20029;-66
2023/02/09 02:02:46;;;;;;;15.10;6.13;;;;;;;;;;5097117;28;20031;-67
2023/02/09 02:05:11;;;;;;;12.45;5.00;;;;;;;;;;5077385;28;20025;-66
2023/02/09 02:07:36;;;;;;;13.00;5.05;;;;;;;;;;5079784;28;20020;-67
2023/02/09 02:10:02;;;;;;;14.23;5.40;;;;;;;;;;5086452;28;20114;-67
2023/02/09 02:12:27;;;;;;;13.60;5.40;;;;;;;;;;5089785;28;20110;-66
2023/02/09 02:14:52;;;;;;;14.93;5.63;;;;;;;;;;5080510;28;20491;-66
2023/02/09 02:17:36;;;;;;;14.83;5.37;;;;;;;;;;5078812;28;20047;-66
2023/02/09 02:20:17;;;;;;;14.55;5.70;;;;;;;;;;5093674;28;20051;-67
2023/02/09 02:22:51;;;;;;;13.43;5.65;;;;;;;;;;5093809;28;20031;-66
2023/02/09 02:25:27;;;;;;;14.82;5.82;;;;;;;;;;5079585;28;20370;-68
2023/02/09 02:28:03;;;;;;;14.45;5.93;;;;;;;;;;5085235;28;20073;-67
2023/02/09 02:30:36;;;;;;;17.00;5.47;;;;;;;;;;5080458;28;20129;-70
2023/02/09 02:33:20;;;;;;;16.00;6.05;;;;;;;;;;5073945;28;20042;-67
2023/02/09 02:36:06;;;;;;;14.27;5.68;;;;;;;;;;5076553;28;20027;-67
2023/02/09 02:38:37;;;;;;;15.77;5.45;;;;;;;;;;5085228;28;20579;-66
2023/02/09 02:41:10;;;;;;;15.45;5.80;;;;;;;;;;5089430;28;20107;-67
2023/02/09 02:43:35;;;;;;;;;;;;;;;;;;5077503;28;20122;-66
2023/02/09 02:46:12;;;;;;;16.83;5.80;;;;;;;;;;5080011;28;20006;-67
2023/02/09 02:48:58;;;;;;;15.13;5.95;;;;;;;;;;5082516;28;20028;-66
2023/02/09 02:51:26;;;;;;;16.33;6.18;;;;;;;;;;5089547;28;20028;-67
2023/02/09 02:53:54;;;;;;;18.85;6.57;;;;;;;;;;5073685;28;20019;-67
2023/02/09 02:56:22;;;;;;;17.33;6.25;;;;;;;;;;5073585;28;20052;-68
2023/02/09 02:58:49;;;;;;;16.67;7.00;;;;;;;;;;5089032;28;20322;-67
2023/02/09 03:01:14;;;;;;;;;;;;;;;;;;5076615;28;20051;-67
2023/02/09 03:03:40;;;;;;;15.65;6.50;;;;;;;;;;5079830;28;19955;-69
2023/02/09 03:06:06;;;;;;;16.25;6.10;;;;;;;;;;5079518;28;20026;-68
2023/02/09 03:09:04;;;;;;;17.58;6.60;;;;;;;;;;5082797;28;20024;-67
2023/02/09 03:11:31;;;;;;;15.90;6.22;;;;;;;;;;5055989;28;20044;-66
2023/02/09 03:14:20;;;;;;;16.95;6.20;;;;;;;;;;5072574;28;20084;-66
2023/02/09 03:16:47;;;;;;;16.67;6.70;;;;;;;;;;5075652;28;20025;-66
2023/02/09 03:19:24;;;;;;;17.40;7.05;;;;;;;;;;5084311;28;20024;-67
2023/02/09 03:22:05;;;;;;;18.92;6.68;;;;;;;;;;5085900;28;20492;-69
2023/02/09 03:24:35;;;;;;;19.45;6.90;;;;;;;;;;5085487;28;20081;-68
2023/02/09 03:27:08;;;;;;;19.15;7.20;;;;;;;;;;5090350;28;20024;-66
2023/02/09 03:29:33;;;;;;;18.45;6.88;;;;;;;;;;5085553;28;20085;-66
2023/02/09 03:31:58;;;;;;;15.02;6.13;;;;;;;;;;5087367;28;20016;-68
2023/02/09 03:34:25;;;;;;;16.00;6.75;;;;;;;;;;5075088;28;20103;-67
2023/02/09 03:36:51;;;;;;;14.57;6.13;;;;;;;;;;5072669;28;20474;-67
2023/02/09 03:39:16;;;;;;;17.85;6.70;;;;;;;;;;5081948;28;20080;-67
2023/02/09 03:41:41;;;;;;;17.30;7.13;;;;;;;;;;5071610;28;20453;-66
2023/02/09 03:44:25;;;;;;;19.95;6.88;;;;;;;;;;5077900;28;20036;-67
2023/02/09 03:46:50;;;;;;;17.30;6.55;;;;;;;;;;5076218;28;20074;-66
2023/02/09 03:49:15;;;;;;;17.20;6.63;;;;;;;;;;5087707;28;20025;-67
2023/02/09 03:51:41;;;;;;;16.98;6.05;;;;;;;;;;5077353;28;20028;-67
2023/02/09 03:54:07;;;;;;;16.92;6.32;;;;;;;;;;5087786;28;20032;-65
2023/02/09 03:56:32;;;;;;;16.30;6.77;;;;;;;;;;5089723;28;20024;-65
2023/02/09 03:58:57;;;;;;;18.00;7.28;;;;;;;;;;5079504;28;20834;-66
2023/02/09 04:01:22;;;;;;;18.08;6.95;;;;;;;;;;5091981;28;20533;-66
2023/02/09 04:03:47;;;;;;;15.75;6.53;;;;;;;;;;5092226;28;20028;-66
2023/02/09 04:06:12;;;;;;;15.37;6.27;;;;;;;;;;5089271;28;20028;-66
2023/02/09 04:08:37;;;;;;;17.27;6.80;;;;;;;;;;5084542;28;20020;-68
2023/02/09 04:11:03;;;;;;;16.75;6.85;;;;;;;;;;5087083;28;20035;-66
2023/02/09 04:13:28;;;;;;;17.52;6.75;;;;;;;;;;5088867;28;20038;-68
2023/02/09 04:15:53;;;;;;;19.30;7.43;;;;;;;;;;5072070;28;20474;-67
2023/02/09 04:18:18;;;;;;;17.90;7.35;;;;;;;;;;5079771;28;20020;-66
2023/02/09 04:20:43;;;;;;;19.63;6.90;;;;;;;;;;5083582;28;20059;-65
2023/02/09 04:23:08;;;;;;;16.67;6.78;;;;;;;;;;5085852;28;20031;-68
2023/02/09 04:25:33;;;;;;;19.30;7.40;;;;;;;;;;5077509;28;20025;-68
2023/02/09 04:27:59;;;;;;;16.60;7.03;;;;;;;;;;5077416;28;20031;-68
2023/02/09 04:30:24;;;;;;;17.83;7.00;;;;;;;;;;5084039;28;20032;-66
2023/02/09 04:32:49;;;;;;;17.10;7.22;;;;;;;;;;5079433;28;20453;-67
2023/02/09 04:35:14;;;;;;;18.27;7.22;;;;;;;;;;5091148;28;20034;-65
2023/02/09 04:37:39;;;;;;;18.70;7.00;;;;;;;;;;5074002;28;20073;-68
2023/02/09 04:40:04;;;;;;;18.27;8.50;;;;;;;;;;5083693;28;20028;-66
2023/02/09 04:42:31;;;;;;;17.43;7.20;;;;;;;;;;5083486;28;20086;-66
2023/02/09 04:44:56;;;;;;;19.05;7.53;;;;;;;;;;5074797;28;20126;-70
2023/02/09 04:47:21;;;;;;;18.65;7.95;;;;;;;;;;5078574;28;20024;-70
2023/02/09 04:49:46;;;;;;;17.52;7.28;;;;;;;;;;5078881;28;20500;-67
2023/02/09 04:52:11;;;;;;;17.00;6.00;;;;;;;;;;5080045;28;20102;-67
2023/02/09 04:54:36;;;;;;;18.83;7.27;;;;;;;;;;5082189;28;20032;-66
2023/02/09 04:59:45;;;;;;;20.25;7.05;;;;;;;;;;5080220;28;20042;-67
2023/02/09 05:02:11;;;;;;;19.48;7.20;;;;;;;;;;5077163;28;20029;-67
2023/02/09 05:04:36;;;;;;;18.97;7.20;;;;;;;;;;5086652;28;20473;-67
2023/02/09 05:07:01;;;;;;;17.50;6.72;;;;;;;;;;5075713;28;20016;-67
2023/02/09 05:09:26;;;;;;;21.37;7.83;;;;;;;;;;5077940;28;20029;-66
2023/02/09 05:11:51;;;;;;;18.50;7.03;;;;;;;;;;5080101;28;20024;-65
2023/02/09 05:14:16;;;;;;;19.23;7.05;;;;;;;;;;5085202;28;20020;-67
2023/02/09 05:16:42;;;;;;;16.48;7.10;;;;;;;;;;5083537;28;20020;-67
2023/02/09 05:19:07;;;;;;;16.50;6.63;;;;;;;;;;5086071;28;20047;-67
2023/02/09 05:21:32;;;;;;;21.85;8.05;;;;;;;;;;5085170;28;20035;-66
2023/02/09 05:23:57;;;;;;;18.92;7.25;;;;;;;;;;5088279;28;20039;-67
2023/02/09 05:26:22;;;;;;;17.67;6.70;;;;;;;;;;5087512;28;20028;-65
2023/02/09 05:28:47;;;;;;;17.33;7.00;;;;;;;;;;5079166;28;20101;-67
2023/02/09 05:31:13;;;;;;;19.33;7.50;;;;;;;;;;5083761;28;20028;-67
2023/02/09 05:33:38;;;;;;;17.03;7.07;;;;;;;;;;5082145;28;20032;-66
2023/02/09 05:36:08;;;;;;;18.47;7.33;;;;;;;;;;5078875;28;20054;-67
2023/02/09 05:38:33;;;;;;;18.20;7.70;;;;;;;;;;5083495;28;20773;-66
2023/02/09 05:41:02;;;;;;;18.33;7.43;;;;;;;;;;5073535;28;20131;-67
2023/02/09 05:43:27;;;;;;;18.60;7.30;;;;;;;;;;5080073;28;20024;-68
2023/02/09 05:45:52;;;;;;;19.20;7.88;;;;;;;;;;5066268;28;20040;-66
2023/02/09 05:48:17;;;;;;;20.20;7.18;;;;;;;;;;5077221;28;20031;-69
2023/02/09 05:50:42;;;;;;;18.90;7.07;;;;;;;;;;5070723;28;20119;-66
2023/02/09 05:53:08;;;;;;;17.33;7.27;;;;;;;;;;5061802;28;20489;-69
2023/02/09 05:55:33;;;;;;;18.97;7.50;;;;;;;;;;5075218;28;20032;-66
2023/02/09 05:57:58;;;;;;;20.08;7.63;;;;;;;;;;5080929;28;20036;-68
2023/02/09 06:00:23;;;;;;;21.27;7.60;;;;;;;;;;5073630;28;20036;-65
2023/02/09 06:02:49;;;;;;;23.45;9.82;;;;;;;;;;5078202;28;20354;-68
2023/02/09 06:05:14;;;;;;;20.73;8.40;;;;;;;;;;5078419;28;20495;-67
2023/02/09 06:07:39;;;;;;;22.33;8.33;;;;;;;;;;5075543;28;20031;-68
2023/02/09 06:10:04;;;;;;;20.45;8.18;;;;;;;;;;5084290;28;20401;-66
2023/02/09 06:12:29;;;;;;;20.60;8.13;;;;;;;;;;5081890;28;20469;-67
2023/02/09 06:14:54;;;;;;;19.30;7.63;;;;;;;;;;5073964;28;20470;-67
2023/02/09 06:17:20;;;;;;;20.83;8.10;;;;;;;;;;5072521;28;20478;-67
2023/02/09 06:19:45;;;;;;;21.80;8.00;;;;;;;;;;5085064;28;20039;-69
2023/02/09 06:22:10;;;;;;;21.58;8.27;;;;;;;;;;5085962;28;20048;-67
2023/02/09 06:24:35;;;;;;;26.20;8.50;;;;;;;;;;5081392;28;20043;-67
2023/02/09 06:27:00;;;;;;;21.00;7.63;;;;;;;;;;5087436;28;20450;-67
2023/02/09 06:29:26;;;;;;;20.40;7.20;;;;;;;;;;5089850;28;20016;-68
2023/02/09 06:31:51;;;;;;;21.23;7.33;;;;;;;;;;5090045;28;20377;-67
2023/02/09 06:34:16;;;;;;;20.30;7.68;;;;;;;;;;5090280;28;20030;-67
2023/02/09 06:36:41;;;;;;;21.83;7.85;;;;;;;;;;5087952;28;20061;-67
2023/02/09 06:39:07;;;;;;;19.42;7.03;;;;;;;;;;5089777;28;20025;-67
2023/02/09 06:41:32;;;;;;;20.95;7.68;;;;;;;;;;5089517;28;20051;-66
2023/02/09 06:43:58;;;;;;;21.83;7.17;;;;;;;;;;5106514;28;20024;-67
2023/02/09 06:46:23;;;;;;;22.97;8.17;;;;;;;;;;5102765;28;20024;-67
2023/02/09 06:48:48;;;;;;;27.30;9.43;;;;;;;;;;5089177;28;20389;-66
2023/02/09 06:51:14;;;;;;;25.70;7.57;;;;;;;;;;5087037;28;20036;-68
2023/02/09 06:53:39;;;;;;;23.25;8.88;;;;;;;;;;5080882;28;20369;-69
2023/02/09 06:56:05;;;;;;;24.53;8.67;;;;;;;;;;5090121;28;20028;-67
2023/02/09 06:58:30;;;;;;;22.45;7.97;;;;;;;;;;5089358;28;20147;-67
2023/02/09 07:01:00;;;;;;;22.80;8.47;;;;;;;;;;5080528;28;20020;-66
2023/02/09 07:03:25;;;;;;;21.05;7.53;;;;;;;;;;5072832;28;20016;-67
2023/02/09 07:05:50;;;;;;;21.50;6.63;;;;;;;;;;5083383;28;20031;-64
2023/02/09 07:08:15;;;;;;;22.30;8.30;;;;;;;;;;5084406;28;20029;-66
2023/02/09 07:10:40;;;;;;;21.70;7.93;;;;;;;;;;5085968;28;20030;-66
2023/02/09 07:13:05;;;;;;;25.52;8.73;;;;;;;;;;5088701;28;20447;-67
2023/02/09 07:15:30;;;;;;;22.60;8.57;;;;;;;;;;5077760;28;20016;-67
2023/02/09 07:17:56;;;;;;;22.50;8.63;;;;;;;;;;5079707;28;20028;-66
2023/02/09 07:20:21;;;;;;;24.35;8.75;;;;;;;;;;5091881;28;21614;-66
2023/02/09 07:22:46;;;;;;;26.10;8.20;;;;;;;;;;5091469;28;20023;-67
2023/02/09 07:25:12;;;;;;;26.65;9.80;;;;;;;;;;5091663;28;20400;-67
2023/02/09 07:27:41;;;;;;;27.23;8.40;;;;;;;;;;5091005;28;20047;-69
2023/02/09 07:30:06;;;;;;;30.15;10.55;;;;;;;;;;5088959;28;20024;-67
2023/02/09 07:32:32;;;;;;;33.78;11.50;;;;;;;;;;5078027;28;20350;-67
2023/02/09 07:34:57;;;;;;;25.38;8.70;;;;;;;;;;5073440;28;20418;-66
2023/02/09 07:37:23;;;;;;;23.77;8.18;;;;;;;;;;5079524;28;20043;-68
2023/02/09 07:39:48;;;;;;;25.30;8.80;;;;;;;;;;5073552;28;20039;-65
2023/02/09 07:42:13;;;;;;;21.83;8.10;;;;;;;;;;5079386;28;20020;-67
2023/02/09 07:44:38;;;;;;;22.77;8.05;;;;;;;;;;5092380;28;20051;-68
2023/02/09 07:47:03;;;;;;;22.88;8.75;;;;;;;;;;5093091;28;20092;-67
2023/02/09 07:49:28;;;;;;;23.58;8.55;;;;;;;;;;5081446;28;20043;-66
2023/02/09 07:51:53;;;;;;;24.17;8.63;;;;;;;;;;5084443;28;20047;-66
2023/02/09 07:54:19;;;;;;;25.40;8.27;;;;;;;;;;5098905;28;20024;-66
2023/02/09 07:56:44;;;;;;;24.80;8.10;;;;;;;;;;5099311;28;20020;-66
2023/02/09 07:59:09;;;;;;;21.73;7.93;;;;;;;;;;5098056;28;20445;-66
2023/02/09 08:01:35;;;;;;;28.83;8.23;;;;;;;;;;5075870;28;20063;-65
2023/02/09 08:04:00;;;;;;;25.83;8.63;;;;;;;;;;5093814;28;20012;-66
2023/02/09 08:06:28;;;;;;;23.47;8.87;;;;;;;;;;5093247;28;20064;-65
2023/02/09 08:08:53;;;;;;;24.60;8.75;;;;;;;;;;5094437;28;20098;-66
2023/02/09 08:11:20;;;;;;;23.92;8.77;;;;;;;;;;5090649;28;20096;-68
2023/02/09 08:13:46;;;;;;;28.80;8.85;;;;;;;;;;5078130;28;20039;-66
2023/02/09 08:16:13;;;;;;;22.60;8.32;;;;;;;;;;5092118;28;20028;-67
2023/02/09 08:18:43;;;;;;;23.35;8.20;;;;;;;;;;5091881;28;20023;-66
2023/02/09 08:21:10;;;;;;;21.98;7.88;;;;;;;;;;5091040;28;20492;-67
2023/02/09 08:23:35;;;;;;;24.55;7.82;;;;;;;;;;5088218;28;20028;-66
2023/02/09 08:26:04;;;;;;;24.15;8.23;;;;;;;;;;5092498;28;20031;-67
2023/02/09 08:28:29;;;;;;;27.38;9.35;;;;;;;;;;5092244;28;20349;-67
2023/02/09 08:30:54;;;;;;;25.67;8.70;;;;;;;;;;5091131;28;20477;-66
2023/02/09 08:33:19;;;;;;;24.33;8.83;;;;;;;;;;5091700;28;20023;-66
2023/02/09 08:35:45;;;;;;;22.48;8.23;;;;;;;;;;5088583;28;20031;-66
2023/02/09 08:38:10;;;;;;;24.20;8.45;;;;;;;;;;5091731;28;20028;-67
2023/02/09 08:40:39;;;;;;;25.90;8.52;;;;;;;;;;5091249;28;20032;-67
2023/02/09 08:43:04;;;;;;;26.95;8.82;;;;;;;;;;5091858;28;20024;-67
2023/02/09 08:45:29;;;;;;;20.40;7.93;;;;;;;;;;5092502;28;20035;-67
2023/02/09 08:47:54;;;;;;;25.70;8.73;;;;;;;;;;5090710;28;20032;-67
2023/02/09 08:50:19;;;;;;;21.80;8.77;;;;;;;;;;5091062;28;20060;-68
2023/02/09 08:52:45;;;;;;;28.52;9.13;;;;;;;;;;5091511;28;20020;-67
2023/02/09 08:55:10;;;;;;;23.50;7.38;;;;;;;;;;5092057;28;20032;-67
2023/02/09 08:57:35;;;;;;;25.10;9.88;;;;;;;;;;5091231;28;20469;-68
2023/02/09 09:00:00;;;;;;;26.70;8.50;;;;;;;;;;5088169;28;20035;-67
2023/02/09 09:02:25;;;;;;;19.97;7.93;;;;;;;;;;5081007;28;20016;-67
2023/02/09 09:04:50;;;;;;;19.83;7.80;;;;;;;;;;5091782;28;20145;-66
2023/02/09 09:07:16;;;;;;;25.50;9.23;;;;;;;;;;5092568;28;20077;-67
2023/02/09 09:09:41;;;;;;;24.13;8.77;;;;;;;;;;5090984;28;20031;-67
2023/02/09 09:12:06;;;;;;;26.88;8.95;;;;;;;;;;5090564;28;20015;-68
2023/02/09 09:14:31;;;;;;;23.37;9.20;;;;;;;;;;5096457;28;20031;-66
2023/02/09 09:16:57;;;;;;;21.67;9.37;;;;;;;;;;5096217;28;20027;-68
2023/02/09 09:19:22;;;;;;;24.25;9.23;;;;;;;;;;5085988;28;20024;-67
2023/02/09 09:21:47;;;;;;;22.10;8.85;;;;;;;;;;5093895;28;20024;-68
2023/02/09 09:24:13;;;;;;;20.83;8.57;;;;;;;;;;5093973;28;20024;-66
2023/02/09 09:26:38;;;;;;;20.17;8.10;;;;;;;;;;5093313;28;20040;-67
2023/02/09 09:29:03;;;;;;;21.15;8.50;;;;;;;;;;5092114;28;20020;-68
2023/02/09 09:31:29;;;;;;;22.08;9.00;;;;;;;;;;5091571;28;20481;-67
2023/02/09 09:33:54;;;;;;;20.73;8.07;;;;;;;;;;5084291;28;20103;-67
2023/02/09 09:36:19;;;;;;;24.30;8.35;;;;;;;;;;5103941;28;20533;-67
2023/02/09 09:38:44;;;;;;;20.27;8.18;;;;;;;;;;5114968;28;20027;-68
2023/02/09 09:41:21;;;;;;;20.80;7.80;;;;;;;;;;5112331;28;20024;-68
2023/02/09 09:43:47;;;;;;;20.92;8.50;;;;;;;;;;5111457;28;20008;-68
2023/02/09 09:46:15;;;;;;;20.15;7.45;;;;;;;;;;5111995;28;20031;-67
2023/02/09 09:48:42;;;;;;;20.17;8.00;;;;;;;;;;5108200;28;20026;-67
2023/02/09 09:51:17;;;;;;;19.98;7.63;;;;;;;;;;5091249;28;20059;-67
2023/02/09 09:53:43;;;;;;;19.10;7.65;;;;;;;;;;5090201;28;20031;-67
2023/02/09 09:56:09;;;;;;;19.35;8.15;;;;;;;;;;5097283;28;20016;-68
2023/02/09 09:58:38;;;;;;;19.85;7.88;;;;;;;;;;5101901;28;20016;-68
2023/02/09 10:01:03;;;;;;;21.20;8.30;;;;;;;;;;5102934;28;20024;-68
2023/02/09 10:03:29;;;;;;;19.90;7.78;;;;;;;;;;5098619;28;20035;-67
2023/02/09 10:05:56;;;;;;;20.63;8.23;;;;;;;;;;5097318;28;20008;-66
2023/02/09 10:08:24;;;;;;;18.33;7.60;;;;;;;;;;5094876;28;20165;-69
2023/02/09 10:10:58;;;;;;;20.85;8.40;;;;;;;;;;5094434;28;20032;-67
2023/02/09 10:13:25;;;;;;;17.65;6.95;;;;;;;;;;5087812;28;20461;-67
2023/02/09 10:15:51;;;;;;;18.73;7.15;;;;;;;;;;5096249;28;20085;-69
2023/02/09 10:18:17;;;;;;;18.77;7.35;;;;;;;;;;5116137;28;20024;-67
2023/02/09 10:20:55;;;;;;;17.13;6.85;;;;;;;;;;5104687;28;20035;-70
2023/02/09 10:23:20;;;;;;;16.25;6.40;;;;;;;;;;5093270;28;20160;-68
2023/02/09 10:25:45;;;;;;;17.23;6.90;;;;;;;;;;5094604;28;20111;-67
2023/02/09 10:28:17;;;;;;;16.63;6.70;;;;;;;;;;5094879;28;20589;-67
2023/02/09 10:30:44;;;;;;;16.60;6.40;;;;;;;;;;5093776;28;20120;-67
2023/02/09 10:33:12;;;;;;;15.20;6.00;;;;;;;;;;5093906;28;20412;-67
2023/02/09 10:35:41;;;;;;;14.90;6.68;;;;;;;;;;5091780;28;20016;-67
2023/02/09 10:38:13;;;;;;;17.73;7.00;;;;;;;;;;5091200;28;20564;-67
2023/02/09 10:40:39;;;;;;;17.13;6.70;;;;;;;;;;5093636;28;20028;-67
2023/02/09 10:43:24;;;;;;;18.70;7.32;;;;;;;;;;5094272;28;20023;-68
2023/02/09 10:45:54;;;;;;;15.60;6.38;;;;;;;;;;5093834;28;20050;-69
2023/02/09 10:48:20;;;;;;;18.98;6.82;;;;;;;;;;5087321;28;20373;-67
2023/02/09 10:50:50;;;;;;;16.92;7.25;;;;;;;;;;5093124;28;20020;-67
2023/02/09 10:53:26;;;;;;;15.98;6.03;;;;;;;;;;5093553;28;20024;-67
2023/02/09 10:56:03;;;;;;;15.43;6.00;;;;;;;;;;5088659;28;20473;-66
2023/02/09 10:58:30;;;;;;;16.50;6.10;;;;;;;;;;5078417;28;20029;-68
2023/02/09 11:01:03;;;;;;;13.65;6.20;;;;;;;;;;5073950;28;20594;-67
2023/02/09 11:03:29;;;;;;;17.45;5.72;;;;;;;;;;5085131;28;20024;-67
2023/02/09 11:06:23;;;;;;;15.65;6.65;;;;;;;;;;5093349;28;20031;-68
2023/02/09 11:08:51;;;;;;;13.43;5.50;;;;;;;;;;5088025;28;20032;-68
2023/02/09 11:11:25;;;;;;;15.70;6.10;;;;;;;;;;5092450;28;20489;-68
2023/02/09 11:13:50;;;;;;;13.75;5.65;;;;;;;;;;5093789;28;20119;-67
2023/02/09 11:16:33;;;;;;;14.10;5.70;;;;;;;;;;5093799;28;20103;-68
2023/02/09 11:19:21;;;;;;;13.88;5.90;;;;;;;;;;5087449;28;20032;-68
2023/02/09 11:21:53;;;;;;;14.38;6.05;;;;;;;;;;5085714;28;20036;-66
2023/02/09 11:24:23;;;;;;;16.60;6.57;;;;;;;;;;5092881;28;20357;-67
2023/02/09 11:26:59;;;;;;;14.13;5.75;;;;;;;;;;5093365;28;20099;-65
2023/02/09 11:29:38;;;;;;;13.95;6.55;;;;;;;;;;5090582;28;20500;-70
2023/02/09 11:32:07;;;;;;;16.20;5.75;;;;;;;;;;5091531;28;20386;-68
2023/02/09 11:34:55;;;;;;;14.73;5.72;;;;;;;;;;5100583;28;20023;-69
2023/02/09 11:37:26;;;;;;;12.48;5.40;;;;;;;;;;5092481;28;20036;-69
2023/02/09 11:40:01;;;;;;;16.15;6.07;;;;;;;;;;5092162;28;20439;-66
2023/02/09 11:42:45;;;;;;;13.93;6.13;;;;;;;;;;5092850;28;20027;-66
2023/02/09 11:45:16;;;;;;;15.45;6.07;;;;;;;;;;5092413;28;20111;-67
2023/02/09 11:47:47;;;;;;;12.30;5.22;;;;;;;;;;5092122;28;20016;-67
2023/02/09 11:50:20;;;;;;;12.02;5.63;;;;;;;;;;5088563;28;20119;-67
2023/02/09 11:52:45;;;;;;;;;;;;;;;;;;5093411;28;20020;-69
2023/02/09 11:55:25;;;;;;;16.15;5.57;;;;;;;;;;5092541;28;19911;-67
2023/02/09 11:57:53;;;;;;;15.15;5.93;;;;;;;;;;5092196;28;20457;-68
2023/02/09 12:00:20;;;;;;;17.23;6.78;;;;;;;;;;5091835;28;20358;-67
2023/02/09 12:02:46;;;;;;;;;;;;;;;;;;5090345;28;20028;-66
2023/02/09 12:05:15;;;;;;;13.80;6.28;;;;;;;;;;5089729;28;20361;-65
2023/02/09 12:07:45;;;;;;;15.82;6.15;;;;;;;;;;5092110;28;20098;-67
2023/02/09 12:10:18;;;;;;;13.13;5.72;;;;;;;;;;5091686;28;20073;-70
2023/02/09 12:12:48;;;;;;;17.85;6.30;;;;;;;;;;5090395;28;20038;-66
2023/02/09 12:15:18;;;;;;;16.27;6.90;;;;;;;;;;5081154;28;20384;-67
2023/02/09 12:17:46;;;;;;;14.90;6.20;;;;;;;;;;5090621;28;20016;-68
2023/02/09 12:20:23;;;;;;;14.75;6.32;;;;;;;;;;5091930;28;20017;-69
2023/02/09 12:22:51;;;;;;;19.67;7.78;;;;;;;;;;5092383;28;20029;-67
2023/02/09 12:25:16;;;;;;;17.63;7.22;;;;;;;;;;5092082;28;20024;-66
2023/02/09 12:27:42;;;;;;;16.75;7.35;;;;;;;;;;5088720;28;20031;-67
2023/02/09 12:30:26;;;;;;;15.88;6.90;;;;;;;;;;5088013;28;20423;-66
2023/02/09 12:33:09;;;;;;;16.80;6.93;;;;;;;;;;5091871;28;20020;-66
2023/02/09 12:35:37;;;;;;;18.63;7.43;;;;;;;;;;5092006;28;20016;-65
2023/02/09 12:38:16;;;;;;;17.67;7.30;;;;;;;;;;5092800;28;20077;-68
2023/02/09 12:40:41;;;;;;;17.90;7.53;;;;;;;;;;5094033;28;20023;-67
2023/02/09 12:43:11;;;;;;;15.97;7.63;;;;;;;;;;5090461;28;20016;-65
2023/02/09 12:45:40;;;;;;;21.15;8.10;;;;;;;;;;5084294;28;20024;-68
2023/02/09 12:48:06;;;;;;;18.40;7.95;;;;;;;;;;5104951;28;20022;-67
2023/02/09 12:50:51;;;;;;;19.63;7.95;;;;;;;;;;5091955;28;20103;-67
2023/02/09 12:53:22;;;;;;;18.48;8.35;;;;;;;;;;5092457;28;20359;-66
2023/02/09 12:55:56;;;;;;;16.38;8.32;;;;;;;;;;5090226;28;20364;-66
2023/02/09 12:58:36;;;;;;;17.83;7.65;;;;;;;;;;5092696;28;20369;-67
2023/02/09 13:01:02;;;;;;;20.20;8.95;;;;;;;;;;5094157;28;20038;-66
2023/02/09 13:03:27;;;;;;;22.92;8.95;;;;;;;;;;5090952;28;20571;-68
2023/02/09 13:05:55;;;;;;;22.52;8.73;;;;;;;;;;5091092;28;20047;-67
2023/02/09 13:08:24;;;;;;;19.75;8.27;;;;;;;;;;5090853;28;20480;-67
2023/02/09 13:10:49;;;;;;;20.70;8.60;;;;;;;;;;5087895;28;20044;-67
2023/02/09 13:13:22;;;;;;;20.70;8.18;;;;;;;;;;5089821;28;20070;-67
2023/02/09 13:16:07;;;;;;;19.33;8.00;;;;;;;;;;5084012;28;20028;-67
2023/02/09 13:18:32;;;;;;;21.55;8.43;;;;;;;;;;5083481;28;20069;-68
2023/02/09 13:21:03;;;;;;;19.90;7.90;;;;;;;;;;5079097;28;20420;-72
2023/02/09 13:23:33;;;;;;;19.20;8.15;;;;;;;;;;5092348;28;20044;-67
2023/02/09 13:26:27;;;;;;;19.17;8.25;;;;;;;;;;5090255;28;20023;-66
2023/02/09 13:29:11;;;;;;;18.73;8.05;;;;;;;;;;5084995;28;20439;-67
2023/02/09 13:31:38;;;;;;;18.02;7.30;;;;;;;;;;5077527;28;20855;-67
2023/02/09 13:34:32;;;;;;;16.80;7.07;;;;;;;;;;5090499;28;20530;-67
2023/02/09 13:37:19;;;;;;;15.45;6.72;;;;;;;;;;5079559;28;20036;-67
2023/02/09 13:39:51;;;;;;;17.02;7.22;;;;;;;;;;5086213;28;20047;-66
2023/02/09 13:42:18;;;;;;;16.58;7.35;;;;;;;;;;5090581;28;20417;-68
2023/02/09 13:44:44;;;;;;;17.85;7.20;;;;;;;;;;5090344;28;20024;-66
2023/02/09 13:47:12;;;;;;;20.20;7.28;;;;;;;;;;5090312;28;20054;-65
2023/02/09 13:49:37;;;;;;;16.52;7.10;;;;;;;;;;5089951;28;20020;-69
2023/02/09 13:52:11;;;;;;;15.20;6.23;;;;;;;;;;5096706;28;20469;-67
2023/02/09 13:54:37;;;;;;;16.08;6.82;;;;;;;;;;5100486;28;20446;-65
2023/02/09 13:57:02;;;;;;;17.48;6.55;;;;;;;;;;5087394;28;20084;-69
2023/02/09 13:59:28;;;;;;;14.20;6.78;;;;;;;;;;5107921;28;20294;-67
2023/02/09 14:01:53;;;;;;;16.42;6.90;;;;;;;;;;5114881;28;20020;-65
2023/02/09 14:04:21;;;;;;;19.10;7.47;;;;;;;;;;5115048;28;20026;-68
2023/02/09 14:07:00;;;;;;;16.48;7.60;;;;;;;;;;5095742;28;20020;-66
2023/02/09 14:09:49;;;;;;;15.98;7.03;;;;;;;;;;5094330;28;20043;-65
2023/02/09 14:12:16;;;;;;;16.70;7.43;;;;;;;;;;5084808;28;20036;-66
2023/02/09 14:17:28;;;;;;;17.70;7.05;;;;;;;;;;5094241;28;20026;-66
2023/02/09 14:19:54;;;;;;;17.05;7.55;;;;;;;;;;5093609;28;20419;-67
2023/02/09 14:22:27;;;;;;;18.70;8.07;;;;;;;;;;5094779;28;20082;-67
2023/02/09 14:24:52;;;;;;;18.15;6.93;;;;;;;;;;5094344;28;20020;-66
2023/02/09 14:27:28;;;;;;;18.30;7.27;;;;;;;;;;5093796;28;20027;-68
2023/02/09 14:29:54;;;;;;;19.02;6.90;;;;;;;;;;5081731;28;20021;-66
2023/02/09 14:32:21;;;;;;;17.80;7.20;;;;;;;;;;5088899;28;20024;-64
2023/02/09 14:34:47;;;;;;;17.08;7.05;;;;;;;;;;5096544;28;20489;-66
2023/02/09 14:37:12;;;;;;;15.88;6.70;;;;;;;;;;5094289;28;20032;-65
2023/02/09 14:39:59;;;;;;;16.63;7.70;;;;;;;;;;5113437;28;20517;-69
2023/02/09 14:42:25;;;;;;;17.05;7.15;;;;;;;;;;5101592;28;20062;-66
2023/02/09 14:44:54;;;;;;;16.63;7.37;;;;;;;;;;5099256;28;20032;-66